createdAt,value
2023-01-12T00:00:18.904Z,63.10
2023-01-12T00:05:46.012Z,63.98
2023-01-12T00:10:51.231Z,65.01
2023-01-12T00:16:21.024Z,65.02
2023-01-12T00:21:25.577Z,65.91
2023-01-12T00:26:29.790Z,63.33
2023-01-12T00:31:33.513Z,63.63
2023-01-12T00:36:37.366Z,64.06
2023-01-12T00:42:01.238Z,62.19
2023-01-12T00:47:08.154Z,62.55
2023-01-12T00:52:29.477Z,62.46
2023-01-12T00:57:34.391Z,62.47
2023-01-12T01:02:37.974Z,63.77
2023-01-12T01:07:41.798Z,64.77
2023-01-12T01:12:45.799Z,62.95
2023-01-12T01:17:49.488Z,62.64
2023-01-12T01:22:53.069Z,62.72
2023-01-12T01:27:56.793Z,61.39
2023-01-12T01:33:00.258Z,62.05
2023-01-12T01:38:05.243Z,62.45
2023-01-12T01:43:15.060Z,61.79
2023-01-12T01:48:18.903Z,62.53
2023-01-12T01:53:27.293Z,62.65
2023-01-12T01:58:51.044Z,62.01
2023-01-12T02:03:56.770Z,60.35
2023-01-12T02:09:27.708Z,62.20
2023-01-12T02:14:52.133Z,64.86
2023-01-12T02:20:22.586Z,65.15
2023-01-12T02:26:03.477Z,64.86
2023-01-12T02:31:18.731Z,63.46
2023-01-12T02:36:34.268Z,64.14
2023-01-12T02:42:10.363Z,64.14
2023-01-12T02:47:30.603Z,64.00
2023-01-12T02:52:35.357Z,64.57
2023-01-12T02:57:40.074Z,63.72
2023-01-12T03:02:43.753Z,62.44
2023-01-12T03:08:06.015Z,62.02
2023-01-12T03:13:16.736Z,61.91
2023-01-12T03:18:44.002Z,61.66
2023-01-12T03:23:58.233Z,60.48
2023-01-12T03:29:19.917Z,61.00
2023-01-12T03:34:24.295Z,60.90
2023-01-12T03:40:04.406Z,61.10
2023-01-12T03:45:48.109Z,62.12
2023-01-12T03:51:00.732Z,62.83
2023-01-12T03:56:10.342Z,63.48
2023-01-12T04:01:14.783Z,63.68
2023-01-12T04:06:18.611Z,61.71
2023-01-12T04:11:41.184Z,61.35
2023-01-12T04:16:44.900Z,61.70
2023-01-12T04:22:07.033Z,61.69
2023-01-12T04:27:11.095Z,62.05
2023-01-12T04:32:15.424Z,63.85
2023-01-12T04:37:19.483Z,64.67
2023-01-12T04:42:41.712Z,65.11
2023-01-12T04:47:45.224Z,65.85
2023-01-12T04:52:48.826Z,64.82
2023-01-12T04:57:52.459Z,64.70
2023-01-12T05:03:04.073Z,65.34
2023-01-12T05:08:28.378Z,66.55
2023-01-12T05:13:32.519Z,64.92
2023-01-12T05:18:36.763Z,63.71
2023-01-12T05:23:40.696Z,62.67
2023-01-12T05:28:44.355Z,62.12
2023-01-12T05:33:49.235Z,61.22
2023-01-12T05:38:52.996Z,61.75
2023-01-12T05:43:56.642Z,61.62
2023-01-12T05:49:00.382Z,63.28
2023-01-12T05:54:08.613Z,65.34
2023-01-12T05:59:13.786Z,67.44
2023-01-12T06:04:17.385Z,68.65
2023-01-12T06:09:21.994Z,68.55
2023-01-12T06:14:25.833Z,67.45
2023-01-12T06:19:29.649Z,67.56
2023-01-12T06:24:33.391Z,66.53
2023-01-12T06:29:36.973Z,65.40
2023-01-12T06:34:42.600Z,65.36
2023-01-12T06:39:46.194Z,67.09
2023-01-12T06:44:50.568Z,68.30
2023-01-12T06:49:54.178Z,68.79
2023-01-12T06:54:57.803Z,69.52
2023-01-12T07:00:01.470Z,70.82
2023-01-12T07:05:06.136Z,70.09
2023-01-12T07:10:12.559Z,68.64
2023-01-12T07:15:16.809Z,66.96
2023-01-12T07:20:20.604Z,66.83
2023-01-12T07:25:25.549Z,64.52
2023-01-12T07:30:29.140Z,64.40
2023-01-12T07:35:32.859Z,65.23
2023-01-12T07:40:38.792Z,64.80
2023-01-12T07:45:43.440Z,67.36
2023-01-12T07:50:49.229Z,69.27
2023-01-12T07:55:52.754Z,69.65
2023-01-12T08:00:59.984Z,71.60
2023-01-12T08:06:03.866Z,68.95
2023-01-12T08:11:10.550Z,65.87
2023-01-12T08:16:25.182Z,64.99
2023-01-12T08:21:46.308Z,66.11
2023-01-12T08:26:54.087Z,67.84
2023-01-12T08:32:03.718Z,67.28
2023-01-12T08:37:13.495Z,68.23
2023-01-12T08:42:17.215Z,69.96
2023-01-12T08:47:28.671Z,69.66
2023-01-12T08:52:33.367Z,68.90
2023-01-12T08:57:36.849Z,70.62
2023-01-12T09:02:40.632Z,71.57
2023-01-12T09:07:44.426Z,68.73
2023-01-12T09:12:48.157Z,65.39
2023-01-12T09:17:56.233Z,65.13
2023-01-12T09:22:59.840Z,66.06
2023-01-12T09:28:03.535Z,66.81
2023-01-12T09:33:07.080Z,68.64
2023-01-12T09:38:12.408Z,70.06
2023-01-12T09:43:36.815Z,71.00
2023-01-12T09:48:40.704Z,71.80
2023-01-12T09:53:47.404Z,70.84
2023-01-12T09:59:32.846Z,69.90
2023-01-12T10:04:38.361Z,70.25
2023-01-12T10:09:42.608Z,68.95
2023-01-12T10:15:19.305Z,69.48
2023-01-12T10:20:52.150Z,69.11
2023-01-12T10:26:19.986Z,68.44
2023-01-12T10:31:26.446Z,68.34
2023-01-12T10:36:30.612Z,68.12
2023-01-12T10:41:38.317Z,66.98
2023-01-12T10:46:42.259Z,66.86
2023-01-12T10:51:50.924Z,67.22
2023-01-12T10:57:03.110Z,67.66
2023-01-12T11:02:09.717Z,68.33
2023-01-12T11:07:14.979Z,67.63
2023-01-12T11:12:36.648Z,67.32
2023-01-12T11:17:48.750Z,67.10
2023-01-12T11:22:59.628Z,67.57
2023-01-12T11:28:16.404Z,68.21
2023-01-12T11:33:45.450Z,68.10
2023-01-12T11:39:07.117Z,67.98
2023-01-12T11:44:31.312Z,68.27
2023-01-12T11:49:41.264Z,68.25
2023-01-12T11:54:45.258Z,67.82
2023-01-12T12:00:29.306Z,68.14
2023-01-12T12:05:33.034Z,68.50
2023-01-12T12:11:17.302Z,69.21
2023-01-12T12:16:37.803Z,68.76
2023-01-12T12:21:58.291Z,65.93
2023-01-12T12:27:45.620Z,63.42
2023-01-12T12:33:06.226Z,62.50
2023-01-12T12:38:47.630Z,63.04
2023-01-12T12:44:31.669Z,62.94
2023-01-12T12:49:39.663Z,63.24
2023-01-12T12:54:44.405Z,61.44
2023-01-12T13:00:01.557Z,60.37
2023-01-12T13:05:09.870Z,60.32
2023-01-12T13:10:27.737Z,59.96
2023-01-12T13:15:37.483Z,60.23
2023-01-12T13:20:57.001Z,62.22
2023-01-12T13:26:04.693Z,61.90
2023-01-12T13:31:33.435Z,59.09
2023-01-12T13:36:37.774Z,62.26
2023-01-12T13:42:02.721Z,60.00
2023-01-12T13:47:27.056Z,62.60
2023-01-12T13:52:35.830Z,60.70
2023-01-12T13:57:39.409Z,59.26
2023-01-12T14:02:43.213Z,62.19
2023-01-12T14:08:11.111Z,62.12
2023-01-12T14:13:53.531Z,60.62
2023-01-12T14:18:57.276Z,59.69
2023-01-12T14:24:30.132Z,62.26
2023-01-12T14:29:35.330Z,61.45
2023-01-12T14:34:41.821Z,61.73
2023-01-12T14:39:47.466Z,63.83
2023-01-12T14:45:16.172Z,60.48
2023-01-12T14:50:23.301Z,60.41
2023-01-12T14:55:39.316Z,60.10
2023-01-12T15:00:45.267Z,61.67
2023-01-12T15:05:55.341Z,62.98
2023-01-12T15:11:10.596Z,60.64
2023-01-12T15:16:33.993Z,64.20
2023-01-12T15:22:05.723Z,62.14
2023-01-12T15:27:13.726Z,62.18
2023-01-12T15:32:51.887Z,62.32
2023-01-12T15:37:58.511Z,62.02
2023-01-12T15:43:05.745Z,62.49
2023-01-12T15:48:11.747Z,62.25
2023-01-12T15:53:21.185Z,62.01
2023-01-12T15:58:25.157Z,62.36
2023-01-12T16:03:57.389Z,62.38
2023-01-12T16:08:52.610Z,62.27
2023-01-12T16:13:56.227Z,63.57
2023-01-12T16:19:01.623Z,62.47
2023-01-12T16:24:05.688Z,62.46
2023-01-12T16:29:09.663Z,62.49
2023-01-12T16:34:13.347Z,63.10
2023-01-12T16:39:17.583Z,64.07
2023-01-12T16:44:21.215Z,64.54
2023-01-12T16:49:25.473Z,63.84
2023-01-12T16:54:29.261Z,62.58
2023-01-12T16:59:32.972Z,61.47
2023-01-12T17:04:38.738Z,61.56
2023-01-12T17:09:42.662Z,60.98
2023-01-12T17:14:46.745Z,60.35
2023-01-12T17:19:50.454Z,60.52
2023-01-12T17:24:54.793Z,62.80
2023-01-12T17:29:58.809Z,62.01
2023-01-12T17:35:04.835Z,60.79
2023-01-12T17:40:09.955Z,61.04
2023-01-12T17:45:13.766Z,60.71
2023-01-12T17:50:17.575Z,61.30
2023-01-12T17:55:21.385Z,59.97
2023-01-12T18:00:24.875Z,63.95
2023-01-12T18:05:29.411Z,62.21
2023-01-12T18:10:33.460Z,61.45
2023-01-12T18:15:40.345Z,61.47
2023-01-12T18:20:45.380Z,61.37
2023-01-12T18:25:49.653Z,61.38
2023-01-12T18:31:15.403Z,63.22
2023-01-12T18:36:27.217Z,62.65
2023-01-12T18:41:50.660Z,62.88
2023-01-12T18:47:16.414Z,62.64
2023-01-12T18:52:39.888Z,63.37
2023-01-12T18:57:44.061Z,63.46
2023-01-12T19:02:47.943Z,62.81
2023-01-12T19:08:05.396Z,63.09
2023-01-12T19:13:27.930Z,62.49
2023-01-12T19:18:34.232Z,62.31
2023-01-12T19:23:57.546Z,62.37
2023-01-12T19:29:01.997Z,62.99
2023-01-12T19:34:11.334Z,63.23
2023-01-12T19:39:28.643Z,61.62
2023-01-12T19:44:42.888Z,62.00
2023-01-12T19:49:50.014Z,63.12
2023-01-12T19:54:57.282Z,62.25
2023-01-12T20:00:08.252Z,60.35
2023-01-12T20:05:27.861Z,62.92
2023-01-12T20:10:35.029Z,61.21
2023-01-12T20:15:44.942Z,60.58
2023-01-12T20:20:54.879Z,59.62
2023-01-12T20:26:14.731Z,64.27
2023-01-12T20:31:30.893Z,64.58
2023-01-12T20:36:47.657Z,63.64
2023-01-12T20:41:55.676Z,62.94
2023-01-12T20:47:02.446Z,62.13
2023-01-12T20:52:06.495Z,60.99
2023-01-12T20:57:10.910Z,61.17
2023-01-12T21:02:32.831Z,62.25
2023-01-12T21:07:37.700Z,62.65
2023-01-12T21:12:41.675Z,62.17
2023-01-12T21:17:45.943Z,63.01
2023-01-12T21:22:49.814Z,63.28
2023-01-12T21:27:55.555Z,63.87
2023-01-12T21:33:00.354Z,64.47
2023-01-12T21:38:04.927Z,63.32
2023-01-12T21:43:09.748Z,63.97
2023-01-12T21:48:17.147Z,63.70
2023-01-12T21:53:23.012Z,63.28
2023-01-12T21:58:30.007Z,62.95
2023-01-12T22:03:34.335Z,63.87
2023-01-12T22:08:41.448Z,64.46
2023-01-12T22:13:45.749Z,64.04
2023-01-12T22:18:51.617Z,64.04
2023-01-12T22:23:55.881Z,64.55
2023-01-12T22:29:00.979Z,64.61
2023-01-12T22:34:05.832Z,64.32
2023-01-12T22:39:13.011Z,64.80
2023-01-12T22:44:16.887Z,64.68
2023-01-12T22:49:20.889Z,65.49
2023-01-12T22:54:24.537Z,65.62
2023-01-12T22:59:28.531Z,65.23
2023-01-12T23:04:32.345Z,65.17
2023-01-12T23:09:36.243Z,64.42
2023-01-12T23:14:40.373Z,64.03
2023-01-12T23:19:45.556Z,63.34
2023-01-12T23:24:49.252Z,64.53
2023-01-12T23:29:53.031Z,64.18
2023-01-12T23:34:56.968Z,63.07
2023-01-12T23:40:00.977Z,64.01
2023-01-12T23:45:05.236Z,63.92
2023-01-12T23:50:12.640Z,63.42
2023-01-12T23:55:16.557Z,62.31
